MAD weather

Adolfo Suárez Madrid–Barajas Airport
Madrid, Madrid, Spain

Public forecast

Using degrees Celsius for public forecast. Weather courtesy of forecast.io.

METAR (pilot weather report)

Retrieved 2017/05/28 23:30 UTC (24 minutes ago):

LEMD 282330Z 13005KT 9999 OVC060 22/13 Q1017 TEMPO SHRA SCT040TCU

TAF (pilot weather forecast)

Retrieved 2017/05/28 18:27 UTC (5 hours ago):

TAF LEMD 281700Z 2818/2924 VRB05KT 9999 SCT050 TX27/2915Z TN16/2906Z PROB40 TEMPO 2818/2820 27012G22KT TEMPO 2819/2906 SHRA SCT040TCU PROB40 TEMPO 2820/2905 VRB15G28KT 3000 TS SHRA BKN014 SCT020CB PROB30 TEMPO 2911/2919 FEW040CB